W4BRM Weather Reports


Display with metric or nautical units.
time (UTC)temp
F
wind
direction
speed
MPH
gust
MPH
rain 1hr
in
rain 24hr
in
rain mn
in
humidity
%
barometer
mb
20211204100345 0 0.0 0.0 0.00 0.00 0.00 1017.3
20211204094857 0 0.0 0.0 0.00 0.00 0.00 1017.4
20211204093356 0 0.0 0.0 0.00 0.00 0.00 1017.4
20211204091851 0 0.0 0.0 0.00 0.00 0.00 1017.6
20211204084852 0 0.0 0.0 0.00 0.00 0.00 1017.7
20211204083348 0 0.0 0.0 0.00 0.00 0.00 1017.7
20211204081856 0 0.0 0.0 0.00 0.00 0.00 1017.9
20211204080347 43 135 0.0 0.0 0.00 0.00 0.00 61 1018.1
20211204074843 44 139 0.0 0.0 0.00 0.00 0.00 61 1018.1
20211204073354 43 135 0.0 2.0 0.00 0.00 0.00 61 1018.1
20211204071845 43 140 0.0 3.0 0.00 0.00 0.00 61 1018.0
20211204070342 43 137 0.0 0.0 0.00 0.00 0.00 61 1017.9
20211204064853 43 137 1.0 3.0 0.00 0.00 0.00 61 1018.0
20211204063346 44 141 0.0 0.0 0.00 0.00 0.00 60 1017.9
20211204061842 44 147 0.0 6.0 0.00 0.00 0.00 60 1017.8
20211204060353 44 201 3.0 6.0 0.00 0.00 0.00 59 1017.9
20211204054849 44 149 3.0 6.0 0.00 0.00 0.00 58 1017.9
20211204053340 44 149 0.0 6.0 0.00 0.00 0.00 56 1018.0
20211204051853 44 175 0.0 9.0 0.00 0.00 0.00 57 1018.1
20211204050347 44 170 5.0 10.0 0.00 0.00 0.00 57 1018.3
20211204044837 44 178 5.0 10.0 0.00 0.00 0.00 57 1018.3
20211204043350 44 165 5.0 9.0 0.00 0.00 0.00 57 1018.2
20211204041846 44 209 1.0 6.0 0.00 0.00 0.00 57 1018.3
20211204040357 44 137 0.0 6.0 0.00 0.00 0.00 57 1018.3
20211204034850 44 162 5.0 7.0 0.00 0.00 0.00 57 1018.1
20211204033347 44 150 2.0 5.0 0.00 0.00 0.00 57 1018.0
20211204031840 44 151 0.0 0.0 0.00 0.00 0.00 57 1018.2
20211204030351 44 140 0.0 0.0 0.00 0.00 0.00 57 1018.4
20211204024847 44 159 0.0 0.0 0.00 0.00 0.00 57 1018.4
20211204023340 44 140 0.0 0.0 0.00 0.00 0.00 57 1018.3
20211204021856 44 140 0.0 0.0 0.00 0.00 0.00 57 1018.4
20211204020348 44 5 0.0 0.0 0.00 0.00 0.00 57 1018.3
20211204014839 44 5 0.0 0.0 0.00 0.00 0.00 56 1018.4
20211204013356 44 5 0.0 0.0 0.00 0.00 0.00 57 1018.4
20211204011848 44 343 0.0 0.0 0.00 0.00 0.00 57 1018.1
20211204010340 44 329 1.0 5.0 0.00 0.00 0.00 58 1018.3
20211204004857 44 343 3.0 5.0 0.00 0.00 0.00 57 1018.2
20211204003347 44 358 0.0 0.0 0.00 0.00 0.00 57 1018.2
20211204001840 44 335 0.0 0.0 0.00 0.00 0.00 56 1017.9
20211204000355 44 343 0.0 0.0 0.00 0.00 0.00 56 1017.8
20211203234846 45 349 1.0 5.0 0.00 0.00 0.00 56 1017.3
20211203233340 45 14 0.0 0.0 0.00 0.00 0.00 56 1017.4
20211203231851 45 2 0.0 3.0 0.00 0.00 0.00 56 1017.0
20211203230343 45 324 5.0 9.0 0.00 0.00 0.00 56 1017.0
20211203224840 45 352 4.0 9.0 0.00 0.00 0.00 56 1017.2
20211203223351 46 334 0.0 7.0 0.00 0.00 0.00 56 1017.3
20211203221841 46 300 0.0 3.0 0.00 0.00 0.00 55 1017.5
20211203220355 46 295 1.0 7.0 0.00 0.00 0.00 55 1017.5
20211203214847 46 314 0.0 8.0 0.00 0.00 0.00 54 1017.2
20211203213357 46 335 0.0 6.0 0.00 0.00 0.00 55 1017.4
20211203211853 47 357 0.0 0.0 0.00 0.00 0.00 54 1017.4
20211203210343 47 305 1.0 9.0 0.00 0.00 0.00 54 1017.2
20211203204854 47 279 1.0 7.0 0.00 0.00 0.00 54 1017.4
20211203203347 47 356 3.0 10.0 0.00 0.00 0.00 54 1017.0
20211203201839 47 295 2.0 10.0 0.00 0.00 0.00 53 1016.8
20211203200350 47 350 3.0 12.0 0.00 0.00 0.00 53 1016.8
20211203194842 48 316 3.0 13.0 0.00 0.00 0.00 53 1016.9
20211203193351 48 340 2.0 8.0 0.00 0.00 0.00 53 1016.7
20211203191846 47 317 4.0 15.0 0.00 0.00 0.00 53 1016.7
20211203190341 47 327 2.0 7.0 0.00 0.00 0.00 54 1016.8
20211203184852 47 307 4.0 12.0 0.00 0.00 0.00 54 1016.7
20211203183349 47 312 5.0 14.0 0.00 0.00 0.00 54 1016.8
20211203181839 47 1 4.0 16.0 0.00 0.00 0.00 54 1016.9
20211203180350 47 312 3.0 12.0 0.00 0.00 0.00 53 1016.9
20211203174846 46 329 4.0 12.0 0.00 0.00 0.00 54 1017.0
20211203173357 46 322 7.0 14.0 0.00 0.00 0.00 53 1017.0
20211203171847 46 333 2.0 11.0 0.00 0.00 0.00 53 1016.7
20211203170342 46 301 5.0 14.0 0.00 0.00 0.00 54 1016.9
20211203164851 46 293 8.0 15.0 0.00 0.00 0.00 53 1017.2
20211203163343 46 305 6.0 16.0 0.00 0.00 0.00 54 1017.6
20211203161838 45 318 7.0 13.0 0.00 0.00 0.00 54 1017.6
20211203160349 45 307 6.0 17.0 0.00 0.00 0.00 54 1017.9
20211203154846 46 302 6.0 17.0 0.00 0.00 0.00 53 1017.6
20211203153357 45 324 7.0 19.0 0.00 0.00 0.00 54 1017.8
20211203151849 45 279 3.0 18.0 0.00 0.00 0.00 55 1017.9
20211203150343 45 326 3.0 14.0 0.00 0.00 0.00 56 1017.5
20211203144854 44 288 4.0 15.0 0.00 0.00 0.00 57 1017.6
20211203143344 44 238 2.0 8.0 0.00 0.00 0.00 59 1017.4
20211203141838 44 352 3.0 10.0 0.00 0.00 0.00 60 1017.5
20211203140348 43 331 1.0 10.0 0.00 0.00 0.00 63 1017.3
20211203134840 43 276 0.0 9.0 0.00 0.00 0.00 63 1017.3
20211203133352 42 340 2.0 8.0 0.00 0.00 0.00 64 1016.7
20211203131844 42 310 5.0 12.0 0.00 0.00 0.00 63 1016.5
20211203130353 42 329 4.0 10.0 0.00 0.00 0.00 63 1016.3
20211203124852 42 318 4.0 9.0 0.00 0.00 0.00 63 1016.0
20211203123342 0 0.0 0.0 0.00 0.00 0.00 1016.0
20211203121853 0 0.0 0.0 0.00 0.00 0.00 1015.5
20211203120343 0 0.0 0.0 0.00 0.00 0.00 1015.6
20211203114854 0 0.0 0.0 0.00 0.00 0.00 1015.4
20211203111838 0 0.0 0.0 0.00 0.00 0.00 1014.9
20211203104852 0 0.0 0.0 0.00 0.00 0.00 1014.7
20211203103348 0 0.0 0.0 0.00 0.00 0.00 1014.0